sensor_id;sensor_type;location;lat;lon;timestamp;temperature;humidity
13433;DHT22;6789;47.678;9.158;2022-10-31T00:03:01;11.30;99.90
13433;DHT22;6789;47.678;9.158;2022-10-31T00:07:53;11.30;99.90
13433;DHT22;6789;47.678;9.158;2022-10-31T00:12:45;11.30;99.90
13433;DHT22;6789;47.678;9.158;2022-10-31T00:17:37;11.30;99.90
13433;DHT22;6789;47.678;9.158;2022-10-31T00:22:29;11.30;99.90
13433;DHT22;6789;47.678;9.158;2022-10-31T00:27:20;11.30;99.90
13433;DHT22;6789;47.678;9.158;2022-10-31T00:32:12;11.20;99.90
13433;DHT22;6789;47.678;9.158;2022-10-31T00:37:04;11.20;99.90
13433;DHT22;6789;47.678;9.158;2022-10-31T00:41:55;11.20;99.90
13433;DHT22;6789;47.678;9.158;2022-10-31T00:46:47;11.20;99.90
13433;DHT22;6789;47.678;9.158;2022-10-31T00:51:39;11.30;99.90
13433;DHT22;6789;47.678;9.158;2022-10-31T00:56:30;11.30;99.90
13433;DHT22;6789;47.678;9.158;2022-10-31T01:01:22;11.30;99.90
13433;DHT22;6789;47.678;9.158;2022-10-31T01:06:14;11.40;99.90
13433;DHT22;6789;47.678;9.158;2022-10-31T01:11:14;11.40;99.90
13433;DHT22;6789;47.678;9.158;2022-10-31T01:16:12;11.50;99.90
13433;DHT22;6789;47.678;9.158;2022-10-31T01:26:10;11.40;99.90
13433;DHT22;6789;47.678;9.158;2022-10-31T01:31:07;11.40;99.90
13433;DHT22;6789;47.678;9.158;2022-10-31T01:36:00;11.40;99.90
13433;DHT22;6789;47.678;9.158;2022-10-31T01:40:53;11.40;99.90
13433;DHT22;6789;47.678;9.158;2022-10-31T01:45:50;11.40;99.90
13433;DHT22;6789;47.678;9.158;2022-10-31T01:50:48;11.50;99.90
13433;DHT22;6789;47.678;9.158;2022-10-31T01:55:45;11.40;99.90
13433;DHT22;6789;47.678;9.158;2022-10-31T02:00:38;11.40;99.90
13433;DHT22;6789;47.678;9.158;2022-10-31T02:05:33;11.40;99.90
13433;DHT22;6789;47.678;9.158;2022-10-31T02:10:26;11.40;99.90
13433;DHT22;6789;47.678;9.158;2022-10-31T02:15:18;11.30;99.90
13433;DHT22;6789;47.678;9.158;2022-10-31T02:20:20;11.20;99.90
13433;DHT22;6789;47.678;9.158;2022-10-31T02:30:50;11.20;99.90
13433;DHT22;6789;47.678;9.158;2022-10-31T02:36:11;11.20;99.90
13433;DHT22;6789;47.678;9.158;2022-10-31T02:46:35;11.20;99.90
13433;DHT22;6789;47.678;9.158;2022-10-31T02:51:37;11.10;99.90
13433;DHT22;6789;47.678;9.158;2022-10-31T02:56:30;11.10;99.90
13433;DHT22;6789;47.678;9.158;2022-10-31T03:07:20;11.10;99.90
13433;DHT22;6789;47.678;9.158;2022-10-31T03:12:44;11.20;99.90
13433;DHT22;6789;47.678;9.158;2022-10-31T03:18:00;11.20;99.90
13433;DHT22;6789;47.678;9.158;2022-10-31T03:23:00;11.20;99.90
13433;DHT22;6789;47.678;9.158;2022-10-31T03:27:56;11.30;99.90
13433;DHT22;6789;47.678;9.158;2022-10-31T03:32:53;11.30;99.90
13433;DHT22;6789;47.678;9.158;2022-10-31T03:37:48;11.10;99.90
13433;DHT22;6789;47.678;9.158;2022-10-31T03:42:49;10.90;99.90
13433;DHT22;6789;47.678;9.158;2022-10-31T03:47:45;10.90;99.90
13433;DHT22;6789;47.678;9.158;2022-10-31T03:52:55;10.80;99.90
13433;DHT22;6789;47.678;9.158;2022-10-31T03:58:02;10.80;99.90
13433;DHT22;6789;47.678;9.158;2022-10-31T04:03:05;10.80;99.90
13433;DHT22;6789;47.678;9.158;2022-10-31T04:08:06;10.90;99.90
13433;DHT22;6789;47.678;9.158;2022-10-31T04:13:06;10.90;99.90
13433;DHT22;6789;47.678;9.158;2022-10-31T04:18:04;10.90;99.90
13433;DHT22;6789;47.678;9.158;2022-10-31T04:22:57;10.90;99.90
13433;DHT22;6789;47.678;9.158;2022-10-31T04:27:48;10.90;99.90
13433;DHT22;6789;47.678;9.158;2022-10-31T04:32:40;11.00;99.90
13433;DHT22;6789;47.678;9.158;2022-10-31T04:37:32;10.90;99.90
13433;DHT22;6789;47.678;9.158;2022-10-31T04:42:23;10.90;99.90
13433;DHT22;6789;47.678;9.158;2022-10-31T04:47:15;11.00;99.90
13433;DHT22;6789;47.678;9.158;2022-10-31T04:52:07;11.00;99.90
13433;DHT22;6789;47.678;9.158;2022-10-31T04:56:59;11.10;99.90
13433;DHT22;6789;47.678;9.158;2022-10-31T05:01:51;11.10;99.90
13433;DHT22;6789;47.678;9.158;2022-10-31T05:06:58;11.10;99.90
13433;DHT22;6789;47.678;9.158;2022-10-31T05:12:04;11.20;99.90
13433;DHT22;6789;47.678;9.158;2022-10-31T05:23:13;11.30;99.90
13433;DHT22;6789;47.678;9.158;2022-10-31T05:28:21;11.30;99.90
13433;DHT22;6789;47.678;9.158;2022-10-31T05:33:28;11.40;99.90
13433;DHT22;6789;47.678;9.158;2022-10-31T05:38:38;11.30;99.90
13433;DHT22;6789;47.678;9.158;2022-10-31T05:43:48;11.40;99.90
13433;DHT22;6789;47.678;9.158;2022-10-31T05:48:54;11.30;99.90
13433;DHT22;6789;47.678;9.158;2022-10-31T05:54:00;11.20;99.90
13433;DHT22;6789;47.678;9.158;2022-10-31T05:59:07;11.30;99.90
13433;DHT22;6789;47.678;9.158;2022-10-31T06:04:16;11.30;99.90
13433;DHT22;6789;47.678;9.158;2022-10-31T06:09:26;11.40;99.90
13433;DHT22;6789;47.678;9.158;2022-10-31T06:14:54;11.30;99.90
13433;DHT22;6789;47.678;9.158;2022-10-31T06:20:15;11.30;99.90
13433;DHT22;6789;47.678;9.158;2022-10-31T06:25:26;11.30;99.90
13433;DHT22;6789;47.678;9.158;2022-10-31T06:30:34;11.30;99.90
13433;DHT22;6789;47.678;9.158;2022-10-31T06:35:45;11.30;99.90
13433;DHT22;6789;47.678;9.158;2022-10-31T06:41:19;11.40;99.90
13433;DHT22;6789;47.678;9.158;2022-10-31T06:46:27;11.40;99.90
13433;DHT22;6789;47.678;9.158;2022-10-31T06:51:48;11.40;99.90
13433;DHT22;6789;47.678;9.158;2022-10-31T06:56:55;11.40;99.90
13433;DHT22;6789;47.678;9.158;2022-10-31T07:02:02;11.40;99.90
13433;DHT22;6789;47.678;9.158;2022-10-31T07:07:08;11.50;99.90
13433;DHT22;6789;47.678;9.158;2022-10-31T07:12:15;11.60;99.90
13433;DHT22;6789;47.678;9.158;2022-10-31T07:17:32;11.50;99.90
13433;DHT22;6789;47.678;9.158;2022-10-31T07:22:41;11.50;99.90
13433;DHT22;6789;47.678;9.158;2022-10-31T07:27:48;11.50;99.90
13433;DHT22;6789;47.678;9.158;2022-10-31T07:32:55;11.50;99.90
13433;DHT22;6789;47.678;9.158;2022-10-31T07:38:11;11.50;99.90
13433;DHT22;6789;47.678;9.158;2022-10-31T07:44:03;11.50;99.90
13433;DHT22;6789;47.678;9.158;2022-10-31T07:49:51;11.70;99.90
13433;DHT22;6789;47.678;9.158;2022-10-31T07:55:04;11.70;99.90
13433;DHT22;6789;47.678;9.158;2022-10-31T08:00:17;11.70;99.90
13433;DHT22;6789;47.678;9.158;2022-10-31T08:05:29;11.80;99.90
13433;DHT22;6789;47.678;9.158;2022-10-31T08:10:37;11.80;99.90
13433;DHT22;6789;47.678;9.158;2022-10-31T08:16:40;11.90;99.90
13433;DHT22;6789;47.678;9.158;2022-10-31T08:21:52;12.00;99.90
13433;DHT22;6789;47.678;9.158;2022-10-31T08:27:32;12.00;99.90
13433;DHT22;6789;47.678;9.158;2022-10-31T08:33:19;12.00;99.90
13433;DHT22;6789;47.678;9.158;2022-10-31T08:39:22;12.00;99.90
13433;DHT22;6789;47.678;9.158;2022-10-31T08:45:03;12.00;99.90
13433;DHT22;6789;47.678;9.158;2022-10-31T08:50:29;12.20;99.90
13433;DHT22;6789;47.678;9.158;2022-10-31T08:55:58;12.30;99.90
13433;DHT22;6789;47.678;9.158;2022-10-31T09:01:04;12.30;99.90
13433;DHT22;6789;47.678;9.158;2022-10-31T09:06:35;12.40;99.90
13433;DHT22;6789;47.678;9.158;2022-10-31T09:11:59;12.30;99.90
13433;DHT22;6789;47.678;9.158;2022-10-31T09:43:48;12.70;99.90
13433;DHT22;6789;47.678;9.158;2022-10-31T09:49:17;13.00;99.90
13433;DHT22;6789;47.678;9.158;2022-10-31T10:01:28;13.20;99.90
13433;DHT22;6789;47.678;9.158;2022-10-31T10:06:52;13.40;99.90
13433;DHT22;6789;47.678;9.158;2022-10-31T10:18:19;13.60;99.90
13433;DHT22;6789;47.678;9.158;2022-10-31T10:24:30;13.50;99.90
13433;DHT22;6789;47.678;9.158;2022-10-31T10:35:47;13.80;99.90
13433;DHT22;6789;47.678;9.158;2022-10-31T10:41:26;13.90;99.90
13433;DHT22;6789;47.678;9.158;2022-10-31T10:47:47;14.10;99.90
13433;DHT22;6789;47.678;9.158;2022-10-31T10:53:33;14.30;99.90
13433;DHT22;6789;47.678;9.158;2022-10-31T10:59:13;14.30;99.90
13433;DHT22;6789;47.678;9.158;2022-10-31T11:04:42;14.00;99.90
13433;DHT22;6789;47.678;9.158;2022-10-31T11:11:00;14.00;99.90
13433;DHT22;6789;47.678;9.158;2022-10-31T11:16:38;13.90;99.90
13433;DHT22;6789;47.678;9.158;2022-10-31T11:22:36;13.90;99.90
13433;DHT22;6789;47.678;9.158;2022-10-31T11:35:28;13.80;99.90
13433;DHT22;6789;47.678;9.158;2022-10-31T11:41:51;13.80;99.90
13433;DHT22;6789;47.678;9.158;2022-10-31T11:48:23;13.70;99.90
13433;DHT22;6789;47.678;9.158;2022-10-31T12:07:44;14.00;99.90
13433;DHT22;6789;47.678;9.158;2022-10-31T12:20:03;14.20;99.90
13433;DHT22;6789;47.678;9.158;2022-10-31T12:33:21;14.50;99.90
13433;DHT22;6789;47.678;9.158;2022-10-31T12:45:51;15.00;99.90
13433;DHT22;6789;47.678;9.158;2022-10-31T12:58:03;15.60;99.90
13433;DHT22;6789;47.678;9.158;2022-10-31T13:10:31;16.30;99.90
13433;DHT22;6789;47.678;9.158;2022-10-31T13:16:22;16.20;99.90
13433;DHT22;6789;47.678;9.158;2022-10-31T13:22:08;16.20;99.90
13433;DHT22;6789;47.678;9.158;2022-10-31T13:27:30;16.40;99.90
13433;DHT22;6789;47.678;9.158;2022-10-31T13:33:00;16.10;99.90
13433;DHT22;6789;47.678;9.158;2022-10-31T13:39:01;15.80;99.90
13433;DHT22;6789;47.678;9.158;2022-10-31T13:44:50;15.70;99.90
13433;DHT22;6789;47.678;9.158;2022-10-31T13:50:18;15.40;99.90
13433;DHT22;6789;47.678;9.158;2022-10-31T14:02:13;15.20;99.90
13433;DHT22;6789;47.678;9.158;2022-10-31T14:20:26;15.40;99.90
13433;DHT22;6789;47.678;9.158;2022-10-31T14:32:25;15.30;99.90
13433;DHT22;6789;47.678;9.158;2022-10-31T14:54:30;14.40;99.90
13433;DHT22;6789;47.678;9.158;2022-10-31T15:18:29;13.90;99.90
13433;DHT22;6789;47.678;9.158;2022-10-31T15:24:48;13.90;99.90
13433;DHT22;6789;47.678;9.158;2022-10-31T15:31:27;13.80;99.90
13433;DHT22;6789;47.678;9.158;2022-10-31T15:37:26;13.70;99.90
13433;DHT22;6789;47.678;9.158;2022-10-31T15:43:23;13.30;99.90
13433;DHT22;6789;47.678;9.158;2022-10-31T16:20:49;12.20;99.90
13433;DHT22;6789;47.678;9.158;2022-10-31T16:32:34;12.00;99.90
13433;DHT22;6789;47.678;9.158;2022-10-31T16:38:51;12.00;99.90
13433;DHT22;6789;47.678;9.158;2022-10-31T16:44:48;11.90;99.90
13433;DHT22;6789;47.678;9.158;2022-10-31T16:50:53;11.90;99.90
13433;DHT22;6789;47.678;9.158;2022-10-31T16:56:50;12.10;99.90
13433;DHT22;6789;47.678;9.158;2022-10-31T17:26:33;11.60;99.90
13433;DHT22;6789;47.678;9.158;2022-10-31T17:31:46;11.60;99.90
13433;DHT22;6789;47.678;9.158;2022-10-31T17:37:14;11.60;99.90
13433;DHT22;6789;47.678;9.158;2022-10-31T17:56:28;11.60;99.90
13433;DHT22;6789;47.678;9.158;2022-10-31T18:02:00;11.60;99.90
13433;DHT22;6789;47.678;9.158;2022-10-31T18:07:37;11.60;99.90
13433;DHT22;6789;47.678;9.158;2022-10-31T18:25:37;11.90;99.90
13433;DHT22;6789;47.678;9.158;2022-10-31T19:03:16;12.00;99.90
13433;DHT22;6789;47.678;9.158;2022-10-31T19:08:32;12.10;99.90
13433;DHT22;6789;47.678;9.158;2022-10-31T19:13:43;12.00;99.90
13433;DHT22;6789;47.678;9.158;2022-10-31T19:18:53;12.10;99.90
13433;DHT22;6789;47.678;9.158;2022-10-31T19:24:36;12.10;99.90
13433;DHT22;6789;47.678;9.158;2022-10-31T19:29:56;12.00;99.90
13433;DHT22;6789;47.678;9.158;2022-10-31T19:35:13;11.80;99.90
13433;DHT22;6789;47.678;9.158;2022-10-31T19:41:06;11.90;99.90
13433;DHT22;6789;47.678;9.158;2022-10-31T19:52:19;11.70;99.90
13433;DHT22;6789;47.678;9.158;2022-10-31T19:58:31;11.70;99.90
13433;DHT22;6789;47.678;9.158;2022-10-31T20:04:38;11.70;99.90
13433;DHT22;6789;47.678;9.158;2022-10-31T20:09:52;11.60;99.90
13433;DHT22;6789;47.678;9.158;2022-10-31T20:16:07;11.70;99.90
13433;DHT22;6789;47.678;9.158;2022-10-31T20:22:09;11.70;99.90
13433;DHT22;6789;47.678;9.158;2022-10-31T20:27:59;11.80;99.90
13433;DHT22;6789;47.678;9.158;2022-10-31T20:39:53;11.90;99.90
13433;DHT22;6789;47.678;9.158;2022-10-31T20:45:34;11.90;99.90
13433;DHT22;6789;47.678;9.158;2022-10-31T21:02:05;12.00;99.90
13433;DHT22;6789;47.678;9.158;2022-10-31T21:08:11;12.00;99.90
13433;DHT22;6789;47.678;9.158;2022-10-31T21:14:15;12.10;99.90
13433;DHT22;6789;47.678;9.158;2022-10-31T21:37:50;12.10;99.90
